createdAt,value
2019-02-24T00:01:50.719Z,56.37
2019-02-24T00:04:24.261Z,55.76
2019-02-24T00:06:55.542Z,55.87
2019-02-24T00:09:26.913Z,56.35
2019-02-24T00:11:58.291Z,55.78
2019-02-24T00:14:29.659Z,56.10
2019-02-24T00:17:00.947Z,55.73
2019-02-24T00:19:32.390Z,56.30
2019-02-24T00:22:03.880Z,56.91
2019-02-24T00:24:35.193Z,56.86
2019-02-24T00:27:06.538Z,56.59
2019-02-24T00:29:37.956Z,56.29
2019-02-24T00:32:10.351Z,56.14
2019-02-24T00:34:41.707Z,56.73
2019-02-24T00:37:13.080Z,56.30
2019-02-24T00:39:44.489Z,56.55
2019-02-24T00:42:15.833Z,56.80
2019-02-24T00:44:47.235Z,57.29
2019-02-24T00:47:18.483Z,57.25
2019-02-24T00:49:49.918Z,57.10
2019-02-24T00:52:22.261Z,57.16
2019-02-24T00:54:53.652Z,56.89
2019-02-24T00:57:24.947Z,57.39
2019-02-24T00:59:56.271Z,57.17
2019-02-24T01:02:27.545Z,57.48
2019-02-24T01:04:59.217Z,57.03
2019-02-24T01:07:30.642Z,57.49
2019-02-24T01:10:02.097Z,57.20
2019-02-24T01:12:33.513Z,57.15
2019-02-24T01:15:07.830Z,56.23
2019-02-24T01:17:39.236Z,56.77
2019-02-24T01:20:11.295Z,55.52
2019-02-24T01:22:42.657Z,55.73
2019-02-24T01:25:13.977Z,55.40
2019-02-24T01:27:45.267Z,55.52
2019-02-24T01:30:16.840Z,55.16
2019-02-24T01:32:48.190Z,54.77
2019-02-24T01:35:19.537Z,55.04
2019-02-24T01:37:50.907Z,55.17
2019-02-24T01:40:22.373Z,55.52
2019-02-24T01:42:53.705Z,55.50
2019-02-24T01:45:25.150Z,55.93
2019-02-24T01:47:56.551Z,55.85
2019-02-24T01:50:28.063Z,54.96
2019-02-24T01:52:59.428Z,55.03
2019-02-24T01:55:30.791Z,55.28
2019-02-24T01:58:02.168Z,55.43
2019-02-24T02:00:33.585Z,55.85
2019-02-24T02:03:04.994Z,55.82
2019-02-24T02:05:36.396Z,56.17
2019-02-24T02:08:07.796Z,56.04
2019-02-24T02:10:39.248Z,56.14
2019-02-24T02:13:10.575Z,56.30
2019-02-24T02:15:42.202Z,56.91
2019-02-24T02:18:13.470Z,57.27
2019-02-24T02:20:44.879Z,55.78
2019-02-24T02:23:17.210Z,55.10
2019-02-24T02:25:48.472Z,55.42
2019-02-24T02:28:19.869Z,55.32
2019-02-24T02:30:51.117Z,55.61
2019-02-24T02:33:22.406Z,55.45
2019-02-24T02:35:54.824Z,54.94
2019-02-24T02:38:26.057Z,54.09
2019-02-24T02:40:57.418Z,53.18
2019-02-24T02:43:28.794Z,52.71
2019-02-24T02:46:00.083Z,52.67
2019-02-24T02:48:31.376Z,52.87
2019-02-24T02:51:02.753Z,53.59
2019-02-24T02:53:34.089Z,53.74
2019-02-24T02:56:05.505Z,54.03
2019-02-24T02:58:36.909Z,53.38
2019-02-24T03:01:08.225Z,53.10
2019-02-24T03:03:39.486Z,52.77
2019-02-24T03:06:24.689Z,52.81
2019-02-24T03:08:56.016Z,52.73
2019-02-24T03:11:27.286Z,52.04
2019-02-24T03:13:58.685Z,51.26
2019-02-24T03:16:30.027Z,51.38
2019-02-24T03:19:01.448Z,51.65
2019-02-24T03:21:33.014Z,51.77
2019-02-24T03:24:04.330Z,51.60
2019-02-24T03:26:35.694Z,52.22
2019-02-24T03:29:07.015Z,52.30
2019-02-24T03:31:38.300Z,53.03
2019-02-24T03:34:09.647Z,53.07
2019-02-24T03:36:50.718Z,53.18
2019-02-24T03:39:22.146Z,53.83
2019-02-24T03:41:53.436Z,53.84
2019-02-24T03:44:25.707Z,54.48
2019-02-24T03:46:56.985Z,54.05
2019-02-24T03:49:28.333Z,54.03
2019-02-24T03:51:59.710Z,54.37
2019-02-24T03:54:31.073Z,54.60
2019-02-24T03:57:02.347Z,54.22
2019-02-24T03:59:33.706Z,54.72
2019-02-24T04:02:05.046Z,53.86
2019-02-24T04:04:36.383Z,54.28
2019-02-24T04:07:07.674Z,54.34
2019-02-24T04:09:38.938Z,54.07
2019-02-24T04:12:10.231Z,53.98
2019-02-24T04:14:41.490Z,53.58
2019-02-24T04:17:13.013Z,53.22
2019-02-24T04:19:44.272Z,53.63
2019-02-24T04:22:15.598Z,54.42
2019-02-24T04:24:46.835Z,54.14
2019-02-24T04:27:18.147Z,54.33
2019-02-24T04:29:49.431Z,54.45
2019-02-24T04:32:20.757Z,54.34
2019-02-24T04:34:52.040Z,54.08
2019-02-24T04:37:23.346Z,53.67
2019-02-24T04:39:54.615Z,53.84
2019-02-24T04:42:25.933Z,54.39
2019-02-24T04:44:57.192Z,54.56
2019-02-24T04:47:28.588Z,54.72
2019-02-24T04:49:59.853Z,54.52
2019-02-24T04:52:31.367Z,54.79
2019-02-24T04:55:06.297Z,54.91
2019-02-24T04:57:39.426Z,55.30
2019-02-24T05:00:11.291Z,54.97
2019-02-24T05:02:43.072Z,54.69
2019-02-24T05:05:14.988Z,54.49
2019-02-24T05:07:46.444Z,54.74
2019-02-24T05:10:17.995Z,54.79
2019-02-24T05:12:49.498Z,54.75
2019-02-24T05:15:20.920Z,54.49
2019-02-24T05:17:58.099Z,53.74
2019-02-24T05:20:29.522Z,53.79
2019-02-24T05:23:00.839Z,53.67
2019-02-24T05:25:32.532Z,52.94
2019-02-24T05:28:03.913Z,53.20
2019-02-24T05:30:45.225Z,52.87
2019-02-24T05:33:16.493Z,53.58
2019-02-24T05:35:47.765Z,53.46
2019-02-24T05:38:19.522Z,53.83
2019-02-24T05:40:50.836Z,54.83
2019-02-24T05:43:22.339Z,54.14
2019-02-24T05:45:53.659Z,53.92
2019-02-24T05:48:24.926Z,54.38
2019-02-24T05:50:56.672Z,53.77
2019-02-24T05:53:28.515Z,53.91
2019-02-24T05:56:00.152Z,53.91
2019-02-24T05:58:35.329Z,53.14
2019-02-24T06:01:07.724Z,52.92
2019-02-24T06:03:39.644Z,52.96
2019-02-24T06:06:11.419Z,53.16
2019-02-24T06:08:48.755Z,53.62
2019-02-24T06:11:41.004Z,53.42
2019-02-24T06:14:31.642Z,53.59
2019-02-24T06:17:04.964Z,53.44
2019-02-24T06:19:37.150Z,52.40
2019-02-24T06:22:08.681Z,51.82
2019-02-24T06:24:40.108Z,51.14
2019-02-24T06:27:11.556Z,50.76
2019-02-24T06:29:43.041Z,50.63
2019-02-24T06:32:15.086Z,50.77
2019-02-24T06:34:46.324Z,50.42
2019-02-24T06:37:45.211Z,49.96
2019-02-24T06:40:17.568Z,49.77
2019-02-24T06:42:50.479Z,50.51
2019-02-24T06:45:22.228Z,50.88
2019-02-24T06:47:53.602Z,51.07
2019-02-24T06:50:35.061Z,51.00
2019-02-24T06:53:00.820Z,50.37
2019-02-24T06:55:32.190Z,50.97
2019-02-24T06:58:03.651Z,51.08
2019-02-24T07:00:35.050Z,50.61
2019-02-24T07:03:11.172Z,51.20
2019-02-24T07:05:42.508Z,51.30
2019-02-24T07:08:13.799Z,50.66
2019-02-24T07:10:45.192Z,51.11
2019-02-24T07:13:16.534Z,50.47
2019-02-24T07:15:47.798Z,50.64
2019-02-24T07:18:19.203Z,51.19
2019-02-24T07:20:50.426Z,50.60
2019-02-24T07:23:21.747Z,50.72
2019-02-24T07:25:53.146Z,50.40
2019-02-24T07:28:26.112Z,50.14
2019-02-24T07:30:57.369Z,50.32
2019-02-24T07:33:28.933Z,49.73
2019-02-24T07:36:00.323Z,50.28
2019-02-24T07:38:31.881Z,48.72
2019-02-24T07:41:03.286Z,49.25
2019-02-24T07:43:34.708Z,49.79
2019-02-24T07:46:07.619Z,50.08
2019-02-24T07:48:38.969Z,50.22
2019-02-24T07:51:10.197Z,50.44
2019-02-24T07:53:41.513Z,51.27
2019-02-24T07:56:12.789Z,51.49
2019-02-24T07:58:44.144Z,52.03
2019-02-24T08:01:15.462Z,51.95
2019-02-24T08:03:47.133Z,52.07
2019-02-24T08:06:19.360Z,52.82
2019-02-24T08:08:51.811Z,52.73
2019-02-24T08:11:23.184Z,52.84
2019-02-24T08:13:54.524Z,51.55
2019-02-24T08:16:25.855Z,51.36
2019-02-24T08:18:57.305Z,51.38
2019-02-24T08:21:29.631Z,50.61
2019-02-24T08:24:01.319Z,51.54
2019-02-24T08:26:32.620Z,49.92
2019-02-24T08:29:04.322Z,49.79
2019-02-24T08:31:35.739Z,50.00
2019-02-24T08:34:07.258Z,49.56
2019-02-24T08:36:38.655Z,50.29
2019-02-24T08:39:22.578Z,49.09
2019-02-24T08:41:53.974Z,51.05
2019-02-24T08:44:25.331Z,48.17
2019-02-24T08:46:56.728Z,45.28
2019-02-24T08:49:29.143Z,42.28
2019-02-24T08:52:00.807Z,43.46
2019-02-24T08:54:35.113Z,44.59
2019-02-24T08:57:06.918Z,40.74
2019-02-24T08:59:38.621Z,41.42
2019-02-24T09:02:12.058Z,40.72
2019-02-24T09:04:44.376Z,42.11
2019-02-24T09:07:15.906Z,41.96
2019-02-24T09:09:47.383Z,41.42
2019-02-24T09:12:18.975Z,40.72
2019-02-24T09:14:59.249Z,40.96
2019-02-24T09:17:30.606Z,39.74
2019-02-24T09:20:02.012Z,39.13
2019-02-24T09:22:41.576Z,39.59
2019-02-24T09:25:13.076Z,40.64
2019-02-24T09:27:56.497Z,39.96
2019-02-24T09:30:27.949Z,39.38
2019-02-24T09:33:00.385Z,40.76
2019-02-24T09:35:31.780Z,40.32
2019-02-24T09:38:03.224Z,37.75
2019-02-24T09:40:34.567Z,37.95
2019-02-24T09:43:06.436Z,39.57
2019-02-24T09:45:37.827Z,39.63
2019-02-24T09:48:10.159Z,38.59
2019-02-24T09:50:55.983Z,39.97
2019-02-24T09:53:38.996Z,35.08
2019-02-24T09:56:17.656Z,35.59
2019-02-24T09:58:59.282Z,35.62
2019-02-24T10:01:35.954Z,36.64
2019-02-24T10:04:13.643Z,36.42
2019-02-24T10:06:53.275Z,37.41
2019-02-24T10:09:33.761Z,37.75
2019-02-24T10:12:12.311Z,36.12
2019-02-24T10:14:55.824Z,32.97
2019-02-24T10:17:36.308Z,34.87
2019-02-24T10:24:17.722Z,32.73
2019-02-24T10:26:58.144Z,30.98
2019-02-24T10:29:42.407Z,30.91
2019-02-24T10:32:19.030Z,30.69
2019-02-24T10:35:22.654Z,29.62
2019-02-24T10:37:55.492Z,29.20
2019-02-24T10:40:29.797Z,28.42
2019-02-24T10:43:01.119Z,28.42
2019-02-24T10:45:32.625Z,30.05
2019-02-24T10:48:14.261Z,28.77
2019-02-24T10:51:04.811Z,28.19
2019-02-24T10:53:43.040Z,27.82
2019-02-24T10:56:15.908Z,27.91
2019-02-24T10:58:47.227Z,27.21
2019-02-24T11:01:30.488Z,29.35
2019-02-24T11:04:03.989Z,28.61
2019-02-24T11:06:35.628Z,30.16
2019-02-24T11:09:24.878Z,32.48
2019-02-24T11:11:59.219Z,30.69
2019-02-24T11:14:30.498Z,30.95
2019-02-24T11:17:01.957Z,30.71
2019-02-24T11:19:35.278Z,29.32
2019-02-24T11:22:06.673Z,29.37
2019-02-24T11:24:37.989Z,29.44
2019-02-24T11:27:09.347Z,27.60
2019-02-24T11:29:40.654Z,29.12
2019-02-24T11:32:12.005Z,30.67
2019-02-24T11:34:43.396Z,30.26
2019-02-24T11:37:14.774Z,29.27
2019-02-24T11:39:46.103Z,27.58
2019-02-24T11:42:17.459Z,27.82
2019-02-24T11:44:48.787Z,28.36
2019-02-24T11:47:20.250Z,26.40
2019-02-24T11:49:51.953Z,25.86
2019-02-24T11:52:23.611Z,27.50
2019-02-24T11:54:54.897Z,29.32
2019-02-24T11:57:26.352Z,28.56
2019-02-24T11:59:57.735Z,28.37
2019-02-24T12:02:34.460Z,27.39
2019-02-24T12:05:02.184Z,26.51
2019-02-24T12:07:33.877Z,29.46
2019-02-24T12:10:11.903Z,27.26
2019-02-24T12:12:44.951Z,28.31
2019-02-24T12:15:19.681Z,25.82
2019-02-24T12:17:51.065Z,26.01
2019-02-24T12:20:22.478Z,27.11
2019-02-24T12:23:04.389Z,26.89
2019-02-24T12:25:36.787Z,26.72
2019-02-24T12:28:08.254Z,25.48
2019-02-24T12:30:39.647Z,26.19
2019-02-24T12:33:11.058Z,26.61
2019-02-24T12:35:42.379Z,24.79
2019-02-24T12:38:13.866Z,24.05
2019-02-24T12:40:45.384Z,26.21
2019-02-24T12:43:16.911Z,25.49
2019-02-24T12:45:48.434Z,24.59
2019-02-24T12:48:19.963Z,25.13
2019-02-24T12:50:51.401Z,27.67
2019-02-24T12:53:22.813Z,26.23
2019-02-24T12:55:54.227Z,25.54
2019-02-24T12:58:25.670Z,23.93
2019-02-24T13:00:57.085Z,24.65
2019-02-24T13:03:31.375Z,22.89
2019-02-24T13:06:02.699Z,23.96
2019-02-24T13:08:34.194Z,23.16
2019-02-24T13:11:05.486Z,23.84
2019-02-24T13:13:40.166Z,24.38
2019-02-24T13:16:11.564Z,25.26
2019-02-24T13:18:43.377Z,22.65
2019-02-24T13:21:14.724Z,22.37
2019-02-24T13:23:48.020Z,22.72
2019-02-24T13:26:19.507Z,22.01
2019-02-24T13:28:51.211Z,23.30
2019-02-24T13:31:22.572Z,23.44
2019-02-24T13:33:53.877Z,23.50
2019-02-24T13:36:35.451Z,21.57
2019-02-24T13:39:08.449Z,21.96
2019-02-24T13:41:40.023Z,22.83
2019-02-24T13:44:11.415Z,22.57
2019-02-24T13:46:42.764Z,20.12
2019-02-24T13:49:14.083Z,21.20
2019-02-24T13:51:45.341Z,21.70
2019-02-24T13:54:16.667Z,21.39
2019-02-24T13:56:48.035Z,24.23
2019-02-24T13:59:19.477Z,22.63
2019-02-24T14:01:50.856Z,21.81
2019-02-24T14:04:22.186Z,23.24
2019-02-24T14:06:53.474Z,23.64
2019-02-24T14:09:24.960Z,20.49
2019-02-24T14:11:56.384Z,23.21
2019-02-24T14:14:28.708Z,21.50
2019-02-24T14:16:59.980Z,21.89
2019-02-24T14:19:31.520Z,23.45
2019-02-24T14:22:02.768Z,21.68
2019-02-24T14:24:34.209Z,22.29
2019-02-24T14:27:05.546Z,21.93
2019-02-24T14:29:39.064Z,22.18
2019-02-24T14:32:10.341Z,24.11
2019-02-24T14:34:41.726Z,21.81
2019-02-24T14:37:13.073Z,22.54
2019-02-24T14:39:46.445Z,22.92
2019-02-24T14:42:17.700Z,23.12
2019-02-24T14:44:51.136Z,23.13
2019-02-24T14:47:22.458Z,23.29
2019-02-24T14:49:52.909Z,24.76
2019-02-24T14:52:24.292Z,21.88
2019-02-24T14:54:55.804Z,23.44
2019-02-24T14:57:27.133Z,22.30
2019-02-24T15:00:00.311Z,22.23
2019-02-24T15:02:31.625Z,20.41
2019-02-24T15:05:03.989Z,22.04
2019-02-24T15:07:35.296Z,21.01
2019-02-24T15:10:10.943Z,21.23
2019-02-24T15:12:42.267Z,20.67
2019-02-24T15:15:18.501Z,19.91
2019-02-24T15:17:49.881Z,20.90
2019-02-24T15:20:22.327Z,22.68
2019-02-24T15:22:55.229Z,22.04
2019-02-24T15:25:38.728Z,22.82
2019-02-24T15:28:10.235Z,22.13
2019-02-24T15:30:41.922Z,21.43
2019-02-24T15:33:13.295Z,21.49
2019-02-24T15:35:44.751Z,20.63
2019-02-24T15:38:16.104Z,23.10
2019-02-24T15:40:48.532Z,21.38
2019-02-24T15:43:19.945Z,20.58
2019-02-24T15:45:52.432Z,21.13
2019-02-24T15:48:23.776Z,20.71
2019-02-24T15:50:55.195Z,22.71
2019-02-24T15:53:26.460Z,22.24
2019-02-24T15:55:59.406Z,20.86
2019-02-24T15:58:30.708Z,21.04
2019-02-24T16:01:02.858Z,21.45
2019-02-24T16:03:36.284Z,23.61
2019-02-24T16:06:07.819Z,22.76
2019-02-24T16:08:39.375Z,22.41
2019-02-24T16:11:10.732Z,22.09
2019-02-24T16:13:42.118Z,23.02
2019-02-24T16:16:13.639Z,22.65
2019-02-24T16:18:44.935Z,23.68
2019-02-24T16:21:19.435Z,22.95
2019-02-24T16:23:50.706Z,23.49
2019-02-24T16:26:22.299Z,23.89
2019-02-24T16:28:53.662Z,24.18
2019-02-24T16:31:25.193Z,24.35
2019-02-24T16:33:56.563Z,24.35
2019-02-24T16:36:28.152Z,25.27
2019-02-24T16:38:59.558Z,26.24
2019-02-24T16:41:31.109Z,25.66
2019-02-24T16:44:02.638Z,25.74
2019-02-24T16:46:34.167Z,25.93
2019-02-24T16:49:06.820Z,27.14
2019-02-24T16:51:38.344Z,26.34
2019-02-24T16:54:09.893Z,26.85
2019-02-24T16:56:41.291Z,26.93
2019-02-24T16:59:21.227Z,26.75
2019-02-24T17:01:52.727Z,26.29
2019-02-24T17:04:24.158Z,26.74
2019-02-24T17:06:55.650Z,27.47
2019-02-24T17:09:34.948Z,28.14
2019-02-24T17:12:08.796Z,28.87
2019-02-24T17:14:41.859Z,28.82
2019-02-24T17:17:13.794Z,29.74
2019-02-24T17:19:46.812Z,30.13
2019-02-24T17:22:18.261Z,30.78
2019-02-24T17:24:49.627Z,31.12
2019-02-24T17:27:21.078Z,30.99
2019-02-24T17:29:58.327Z,30.71
2019-02-24T17:32:29.661Z,30.95
2019-02-24T17:35:01.126Z,31.23
2019-02-24T17:37:32.929Z,31.10
2019-02-24T17:40:07.197Z,31.99
2019-02-24T17:42:38.726Z,31.31
2019-02-24T17:45:14.801Z,31.51
2019-02-24T17:47:46.730Z,31.56
2019-02-24T17:50:21.319Z,31.08
2019-02-24T17:52:52.897Z,30.84
2019-02-24T17:55:25.353Z,30.95
2019-02-24T17:57:56.664Z,30.90
2019-02-24T18:00:31.110Z,31.61
2019-02-24T18:03:02.669Z,31.13
2019-02-24T18:05:34.221Z,30.68
2019-02-24T18:08:05.605Z,30.51
2019-02-24T18:10:37.329Z,30.56
2019-02-24T18:13:08.587Z,30.68
2019-02-24T18:15:40.167Z,31.50
2019-02-24T18:18:18.009Z,31.42
2019-02-24T18:20:55.137Z,31.77
2019-02-24T18:23:28.362Z,31.20
2019-02-24T18:25:59.783Z,31.35
2019-02-24T18:28:33.925Z,31.30
2019-02-24T18:31:05.383Z,31.81
2019-02-24T18:33:36.705Z,31.19
2019-02-24T18:36:08.643Z,31.46
2019-02-24T18:38:39.918Z,31.48
2019-02-24T18:41:11.289Z,31.82
2019-02-24T18:43:42.849Z,31.82
2019-02-24T18:46:14.663Z,32.71
2019-02-24T18:48:46.053Z,32.45
2019-02-24T18:51:17.398Z,32.00
2019-02-24T18:53:48.779Z,32.31
2019-02-24T18:56:20.292Z,32.44
2019-02-24T18:58:52.767Z,32.63
2019-02-24T19:01:24.137Z,32.96
2019-02-24T19:03:58.133Z,33.06
2019-02-24T19:06:38.754Z,33.01
2019-02-24T19:09:03.614Z,32.73
2019-02-24T19:11:36.705Z,33.04
2019-02-24T19:14:08.449Z,32.93
2019-02-24T19:16:39.763Z,33.35
2019-02-24T19:19:11.033Z,33.47
2019-02-24T19:21:42.403Z,33.30
2019-02-24T19:24:13.787Z,33.52
2019-02-24T19:26:45.877Z,33.65
2019-02-24T19:29:17.365Z,33.96
2019-02-24T19:31:48.916Z,33.64
2019-02-24T19:34:20.162Z,33.63
2019-02-24T19:36:51.522Z,33.58
2019-02-24T19:39:23.007Z,33.93
2019-02-24T19:41:54.457Z,34.67
2019-02-24T19:44:28.560Z,33.79
2019-02-24T19:47:00.021Z,33.66
2019-02-24T19:49:31.416Z,34.47
2019-02-24T19:52:03.629Z,33.88
2019-02-24T19:54:35.063Z,34.05
2019-02-24T19:57:06.495Z,34.35
2019-02-24T19:59:37.884Z,34.54
2019-02-24T20:02:09.271Z,34.70
2019-02-24T20:04:40.899Z,33.76
2019-02-24T20:07:12.389Z,34.02
2019-02-24T20:09:43.775Z,33.61
2019-02-24T20:12:15.189Z,33.68
2019-02-24T20:14:46.445Z,34.55
2019-02-24T20:17:17.836Z,34.62
2019-02-24T20:19:50.159Z,35.31
2019-02-24T20:22:21.485Z,35.06
2019-02-24T20:24:52.912Z,35.96
2019-02-24T20:27:24.307Z,35.23
2019-02-24T20:29:55.670Z,34.84
2019-02-24T20:32:26.983Z,35.10
2019-02-24T20:34:58.236Z,35.18
2019-02-24T20:37:29.579Z,35.13
2019-02-24T20:40:00.940Z,36.03
2019-02-24T20:42:32.269Z,36.07
2019-02-24T20:45:03.822Z,34.97
2019-02-24T20:47:35.281Z,34.92
2019-02-24T20:50:10.972Z,35.20
2019-02-24T20:52:42.349Z,36.04
2019-02-24T20:55:13.795Z,35.39
2019-02-24T20:57:45.121Z,36.62
2019-02-24T21:00:30.006Z,35.92
2019-02-24T21:03:01.593Z,36.17
2019-02-24T21:05:34.136Z,35.86
2019-02-24T21:08:05.508Z,35.71
2019-02-24T21:10:36.871Z,36.29
2019-02-24T21:13:08.190Z,36.65
2019-02-24T21:15:39.555Z,36.55
2019-02-24T21:18:10.892Z,35.90
2019-02-24T21:20:42.375Z,35.80
2019-02-24T21:23:13.620Z,35.39
2019-02-24T21:25:46.945Z,35.93
2019-02-24T21:28:18.222Z,36.69
2019-02-24T21:30:49.583Z,35.94
2019-02-24T21:33:20.909Z,35.75
2019-02-24T21:35:52.197Z,36.41
2019-02-24T21:38:23.455Z,36.44
2019-02-24T21:40:54.773Z,37.16
2019-02-24T21:43:26.036Z,37.33
2019-02-24T21:45:57.435Z,38.40
2019-02-24T21:48:28.905Z,38.84
2019-02-24T21:51:00.320Z,38.29
2019-02-24T21:53:31.679Z,39.49
2019-02-24T21:56:02.947Z,39.68
2019-02-24T21:58:34.558Z,38.48
2019-02-24T22:01:07.112Z,38.06
2019-02-24T22:03:38.455Z,38.34
2019-02-24T22:06:09.766Z,38.17
2019-02-24T22:08:41.059Z,38.51
2019-02-24T22:11:12.410Z,39.49
2019-02-24T22:13:43.806Z,40.20
2019-02-24T22:16:15.206Z,39.90
2019-02-24T22:18:46.794Z,40.52
2019-02-24T22:21:18.066Z,40.54
2019-02-24T22:23:49.383Z,41.58
2019-02-24T22:26:21.706Z,41.21
2019-02-24T22:28:53.044Z,41.19
2019-02-24T22:31:25.418Z,41.18
2019-02-24T22:33:56.662Z,41.02
2019-02-24T22:36:29.591Z,41.95
2019-02-24T22:39:00.902Z,41.30
2019-02-24T22:41:33.808Z,40.97
2019-02-24T22:44:05.138Z,41.60
2019-02-24T22:46:36.433Z,40.58
2019-02-24T22:49:07.769Z,40.78
2019-02-24T22:51:39.072Z,40.57
2019-02-24T22:54:10.370Z,40.28
2019-02-24T22:56:41.775Z,39.62
2019-02-24T22:59:13.023Z,39.56
2019-02-24T23:01:46.292Z,38.91
2019-02-24T23:04:17.848Z,38.94
2019-02-24T23:06:49.314Z,38.96
2019-02-24T23:09:21.589Z,39.14
2019-02-24T23:11:53.099Z,39.33
2019-02-24T23:14:24.416Z,39.50
2019-02-24T23:16:55.801Z,39.39
2019-02-24T23:19:27.050Z,40.42
2019-02-24T23:21:59.465Z,40.39
2019-02-24T23:24:30.723Z,40.02
2019-02-24T23:27:02.183Z,39.54
2019-02-24T23:29:33.529Z,39.72
2019-02-24T23:32:05.031Z,39.41
2019-02-24T23:34:36.310Z,39.37
2019-02-24T23:37:07.643Z,39.34
2019-02-24T23:39:39.024Z,39.49
2019-02-24T23:42:10.275Z,38.84
2019-02-24T23:44:42.672Z,38.91
2019-02-24T23:47:13.992Z,38.95
2019-02-24T23:49:45.442Z,39.14
2019-02-24T23:52:17.026Z,39.39
2019-02-24T23:54:48.276Z,39.15
2019-02-24T23:57:19.601Z,39.75
2019-02-24T23:59:50.834Z,39.96
